Time;durP1;ratioP1;P1;durP2;ratioP2;P2;SDS_P1;SDS_P2;PMS_P1;PMS_P2;Temp;Humidity;BMP_temperature;BMP_pressure;BME280_temperature;BME280_humidity;BME280_pressure;Samples;Min_cycle;Max_cycle;Signal;HPM_P1;HPM_P2
2023/06/18 00:00:58;;;;;;;20.10;16.98;;;17.10;99.90;;;;;;5027314;28;20208;-74
2023/06/18 00:03:25;;;;;;;20.45;17.23;;;17.10;99.90;;;;;;5027615;28;20208;-74
2023/06/18 00:05:52;;;;;;;18.73;16.73;;;17.10;99.90;;;;;;5030838;28;20176;-73
2023/06/18 00:08:18;;;;;;;18.85;17.02;;;17.10;99.90;;;;;;5030879;28;20244;-74
2023/06/18 00:10:44;;;;;;;17.05;15.25;;;17.10;99.90;;;;;;5031192;28;20220;-73
2023/06/18 00:13:09;;;;;;;19.42;16.35;;;17.10;99.90;;;;;;5030866;28;20208;-74
2023/06/18 00:15:35;;;;;;;18.13;16.13;;;17.00;99.90;;;;;;5032067;28;20236;-74
2023/06/18 00:18:01;;;;;;;22.13;17.33;;;17.00;99.90;;;;;;5032237;28;20251;-74
2023/06/18 00:20:26;;;;;;;18.25;16.35;;;17.10;99.90;;;;;;5029607;28;20209;-74
2023/06/18 00:22:55;;;;;;;19.95;16.45;;;17.00;99.90;;;;;;5028144;28;20208;-73
2023/06/18 00:25:21;;;;;;;17.38;15.25;;;17.00;99.90;;;;;;5026883;28;20216;-73
2023/06/18 00:27:47;;;;;;;19.17;16.65;;;17.00;99.90;;;;;;5029365;28;20201;-71
2023/06/18 00:30:13;;;;;;;18.05;16.15;;;16.90;99.90;;;;;;5022656;28;20212;-73
2023/06/18 00:32:43;;;;;;;20.95;16.55;;;16.80;99.90;;;;;;5027095;28;20216;-75
2023/06/18 00:35:10;;;;;;;18.83;15.55;;;16.80;99.90;;;;;;5025728;28;20169;-73
2023/06/18 00:37:36;;;;;;;16.92;15.13;;;16.80;99.90;;;;;;5027780;28;20284;-75
2023/06/18 00:40:02;;;;;;;18.88;16.85;;;16.80;99.90;;;;;;5026462;28;20312;-75
2023/06/18 00:42:28;;;;;;;17.25;15.15;;;16.90;99.90;;;;;;5030779;28;20239;-76
2023/06/18 00:44:54;;;;;;;19.40;15.40;;;16.90;99.90;;;;;;5029647;28;20663;-73
2023/06/18 00:47:20;;;;;;;18.17;15.65;;;16.90;99.90;;;;;;5030687;28;20180;-74
2023/06/18 00:49:47;;;;;;;17.60;15.73;;;16.90;99.90;;;;;;5030686;28;20204;-74
2023/06/18 00:52:13;;;;;;;19.15;16.02;;;16.80;99.90;;;;;;5031796;28;20211;-74
2023/06/18 00:54:44;;;;;;;20.08;15.82;;;16.80;99.90;;;;;;5031713;28;20209;-76
2023/06/18 00:57:13;;;;;;;17.98;15.00;;;16.80;99.90;;;;;;5030911;28;20254;-73
2023/06/18 00:59:42;;;;;;;19.65;15.02;;;16.70;99.90;;;;;;5032492;28;20196;-73
2023/06/18 01:02:08;;;;;;;18.02;16.23;;;16.80;99.90;;;;;;5026249;28;20188;-73
2023/06/18 01:04:36;;;;;;;19.50;16.10;;;16.80;99.90;;;;;;5030193;28;20216;-73
2023/06/18 01:07:03;;;;;;;19.27;16.58;;;16.80;99.90;;;;;;5028893;28;20213;-73
2023/06/18 01:09:30;;;;;;;18.77;16.85;;;16.80;99.90;;;;;;5025592;28;20201;-73
2023/06/18 01:11:57;;;;;;;17.33;15.30;;;16.80;99.90;;;;;;5029790;28;20201;-73
2023/06/18 01:14:26;;;;;;;17.67;15.77;;;16.70;99.90;;;;;;5028877;28;20177;-73
2023/06/18 01:16:55;;;;;;;18.45;15.98;;;16.70;99.90;;;;;;5031774;28;20211;-73
2023/06/18 01:19:42;;;;;;;18.17;15.43;;;16.70;99.90;;;;;;5029598;28;20220;-73
2023/06/18 01:22:51;;;;;;;19.50;16.63;;;16.70;99.90;;;;;;5027022;28;20736;-73
2023/06/18 01:25:18;;;;;;;18.58;16.50;;;16.70;99.90;;;;;;5024989;28;20294;-73
2023/06/18 01:27:46;;;;;;;17.52;15.55;;;16.70;99.90;;;;;;5029698;28;20686;-73
2023/06/18 01:30:13;;;;;;;19.67;15.60;;;16.60;99.90;;;;;;5030343;28;20204;-73
2023/06/18 01:32:39;;;;;;;18.42;16.08;;;16.70;99.90;;;;;;5030993;28;20254;-74
2023/06/18 01:35:07;;;;;;;18.25;15.50;;;16.60;99.90;;;;;;5030703;28;20181;-72
2023/06/18 01:38:11;;;;;;;18.40;16.00;;;16.60;99.90;;;;;;5027917;28;20213;-73
2023/06/18 01:40:45;;;;;;;19.70;16.60;;;16.60;99.90;;;;;;5029283;28;20709;-74
2023/06/18 01:43:12;;;;;;;17.67;15.68;;;16.60;99.90;;;;;;5023549;28;20223;-73
2023/06/18 01:45:50;;;;;;;19.67;15.60;;;16.60;99.90;;;;;;5025084;28;20238;-74
2023/06/18 01:48:20;;;;;;;17.88;15.98;;;16.60;99.90;;;;;;5021907;28;20646;-73
2023/06/18 01:50:48;;;;;;;17.88;15.57;;;16.60;99.90;;;;;;5030052;28;20196;-73
2023/06/18 01:53:16;;;;;;;17.05;15.10;;;16.50;99.90;;;;;;5027019;28;20629;-73
2023/06/18 01:55:44;;;;;;;17.30;15.40;;;16.50;99.90;;;;;;5029458;28;20327;-72
2023/06/18 01:58:14;;;;;;;20.27;16.02;;;16.50;99.90;;;;;;5026132;28;20247;-74
2023/06/18 02:00:41;;;;;;;18.40;16.25;;;16.50;99.90;;;;;;5028377;28;20399;-73
2023/06/18 02:03:07;;;;;;;23.50;15.73;;;16.40;99.90;;;;;;5028105;28;20208;-73
2023/06/18 02:05:33;;;;;;;16.13;14.15;;;16.40;99.90;;;;;;5028566;28;20227;-76
2023/06/18 02:07:59;;;;;;;17.15;15.40;;;16.50;99.90;;;;;;5028950;28;20589;-75
2023/06/18 02:10:25;;;;;;;17.80;13.80;;;16.50;99.90;;;;;;5030369;28;20216;-73
2023/06/18 02:12:51;;;;;;;17.83;14.48;;;16.50;99.90;;;;;;5022375;28;20213;-73
2023/06/18 02:15:16;;;;;;;16.65;14.95;;;16.40;99.90;;;;;;5019621;28;20208;-72
2023/06/18 02:17:43;;;;;;;16.67;14.98;;;16.40;99.90;;;;;;5028948;28;20658;-71
2023/06/18 02:20:10;;;;;;;15.10;13.50;;;16.40;99.90;;;;;;5021117;28;20421;-72
2023/06/18 02:22:37;;;;;;;18.98;15.60;;;16.40;99.90;;;;;;5030612;28;20263;-72
2023/06/18 02:25:04;;;;;;;18.92;15.18;;;16.40;99.90;;;;;;5022949;28;20258;-73
2023/06/18 02:27:29;;;;;;;16.38;14.52;;;16.40;99.90;;;;;;5030850;28;20207;-73
2023/06/18 02:29:55;;;;;;;18.73;13.80;;;16.40;99.90;;;;;;5030505;28;20550;-71
2023/06/18 02:32:21;;;;;;;17.23;14.80;;;16.40;99.90;;;;;;5026177;28;20225;-73
2023/06/18 02:34:46;;;;;;;16.85;15.00;;;16.40;99.90;;;;;;5030470;28;20266;-73
2023/06/18 02:37:12;;;;;;;17.73;15.57;;;16.50;99.90;;;;;;5030171;28;20212;-74
2023/06/18 02:39:38;;;;;;;17.60;15.18;;;16.30;99.90;;;;;;5030285;28;20223;-73
2023/06/18 02:42:06;;;;;;;17.60;15.70;;;16.40;99.90;;;;;;5028930;28;20212;-71
2023/06/18 02:44:32;;;;;;;20.23;15.57;;;16.40;99.90;;;;;;5029499;28;20184;-73
2023/06/18 02:46:58;;;;;;;22.83;16.55;;;16.50;99.90;;;;;;5026894;28;20212;-72
2023/06/18 02:49:24;;;;;;;19.58;16.13;;;16.40;99.90;;;;;;5029618;28;20214;-73
2023/06/18 02:51:49;;;;;;;19.10;16.30;;;16.40;99.90;;;;;;5029919;28;20239;-73
2023/06/18 02:54:15;;;;;;;18.23;15.55;;;16.40;99.90;;;;;;5040915;28;20203;-74
2023/06/18 02:56:42;;;;;;;18.67;15.65;;;16.40;99.90;;;;;;5030194;28;20188;-72
2023/06/18 02:59:08;;;;;;;15.52;13.75;;;16.50;99.90;;;;;;5030285;28;20212;-74
2023/06/18 03:01:33;;;;;;;18.80;16.23;;;16.50;99.90;;;;;;5022282;28;20717;-74
2023/06/18 03:03:59;;;;;;;16.95;15.13;;;16.50;99.90;;;;;;5025328;28;20200;-72
2023/06/18 03:06:27;;;;;;;17.48;15.05;;;16.50;99.90;;;;;;5030320;28;20208;-73
2023/06/18 03:08:53;;;;;;;18.80;16.25;;;16.50;99.90;;;;;;5030318;28;20180;-74
2023/06/18 03:11:19;;;;;;;17.83;15.52;;;16.50;99.90;;;;;;5028322;28;20206;-73
2023/06/18 03:13:45;;;;;;;17.77;14.93;;;16.50;99.90;;;;;;5029999;28;20212;-73
2023/06/18 03:16:10;;;;;;;19.35;15.73;;;16.60;99.90;;;;;;5029558;28;20211;-73
2023/06/18 03:18:37;;;;;;;16.20;14.35;;;16.60;99.90;;;;;;5027452;28;20224;-73
2023/06/18 03:21:03;;;;;;;16.58;14.73;;;16.60;99.90;;;;;;5024130;28;20714;-73
2023/06/18 03:23:29;;;;;;;18.27;16.38;;;16.60;99.90;;;;;;5024295;28;20238;-73
2023/06/18 03:25:55;;;;;;;17.60;15.80;;;16.60;99.90;;;;;;5029990;28;20679;-74
2023/06/18 03:28:22;;;;;;;20.70;16.65;;;16.60;99.90;;;;;;5027879;28;20227;-74
2023/06/18 03:30:48;;;;;;;16.27;14.57;;;16.70;99.90;;;;;;5028897;28;20212;-73
2023/06/18 03:33:13;;;;;;;22.00;15.45;;;16.80;99.90;;;;;;5029903;28;20201;-72
2023/06/18 03:35:39;;;;;;;18.25;15.77;;;16.80;99.90;;;;;;5028191;28;20529;-73
2023/06/18 03:38:05;;;;;;;17.60;15.57;;;17.10;99.90;;;;;;5028623;28;20168;-73
2023/06/18 03:40:30;;;;;;;17.98;14.75;;;17.50;99.90;;;;;;5023215;28;20263;-73
2023/06/18 03:42:56;;;;;;;18.13;16.15;;;17.70;99.90;;;;;;5029750;28;20682;-73
2023/06/18 03:45:22;;;;;;;16.90;15.10;;;18.10;99.90;;;;;;5022537;28;20204;-74
2023/06/18 03:47:47;;;;;;;16.98;14.88;;;18.70;99.90;;;;;;5023727;28;20180;-74
2023/06/18 03:50:13;;;;;;;14.57;13.10;;;19.50;99.90;;;;;;5028156;28;20177;-73
2023/06/18 03:52:39;;;;;;;16.17;14.45;;;20.20;99.90;;;;;;5025701;28;20236;-73
2023/06/18 03:55:05;;;;;;;14.02;12.57;;;20.70;99.90;;;;;;5027672;28;20204;-74
2023/06/18 03:57:31;;;;;;;15.45;12.77;;;21.30;99.90;;;;;;5025675;28;20760;-74
2023/06/18 03:59:57;;;;;;;13.90;12.07;;;22.00;99.90;;;;;;5026037;28;20236;-74
2023/06/18 04:02:23;;;;;;;12.98;11.77;;;22.40;99.90;;;;;;5029794;28;20196;-72
2023/06/18 04:04:48;;;;;;;13.10;11.82;;;23.00;99.90;;;;;;5029911;28;20697;-74
2023/06/18 04:07:14;;;;;;;12.93;11.63;;;23.50;99.90;;;;;;5029581;28;20261;-74
2023/06/18 04:09:40;;;;;;;11.82;10.75;;;23.90;99.90;;;;;;5030019;28;20629;-74
2023/06/18 04:12:06;;;;;;;13.18;11.98;;;24.60;99.90;;;;;;5027016;28;20212;-74
2023/06/18 04:14:34;;;;;;;12.77;11.32;;;25.10;99.90;;;;;;5031037;28;20168;-74
2023/06/18 04:17:00;;;;;;;12.50;11.30;;;25.70;99.90;;;;;;5030016;28;20757;-70
2023/06/18 04:19:25;;;;;;;12.18;11.07;;;26.20;99.90;;;;;;5033216;28;20299;-72
2023/06/18 04:21:51;;;;;;;13.05;11.80;;;26.30;99.90;;;;;;5033234;28;20208;-72
2023/06/18 04:24:17;;;;;;;12.98;11.63;;;27.60;99.90;;;;;;5048072;28;20216;-71
2023/06/18 04:26:42;;;;;;;12.63;11.32;;;27.50;99.90;;;;;;5030282;28;20175;-71
2023/06/18 04:29:08;;;;;;;11.82;10.77;;;27.40;99.90;;;;;;5031299;28;20187;-74
2023/06/18 04:31:34;;;;;;;11.85;10.75;;;27.50;99.90;;;;;;5030242;28;20227;-69
2023/06/18 04:34:00;;;;;;;12.55;11.35;;;27.60;99.90;;;;;;5029381;28;20223;-72
2023/06/18 04:36:25;;;;;;;12.20;11.10;;;28.20;99.90;;;;;;5029190;28;20320;-71
2023/06/18 04:38:51;;;;;;;12.55;11.25;;;27.90;99.90;;;;;;5031549;28;20196;-72
2023/06/18 04:41:17;;;;;;;12.98;11.77;;;28.20;99.90;;;;;;5031293;28;20192;-71
2023/06/18 04:43:43;;;;;;;12.20;11.07;;;28.90;99.90;;;;;;5032722;28;20295;-72
2023/06/18 04:46:09;;;;;;;12.35;11.18;;;29.20;99.90;;;;;;5031386;28;20250;-71
2023/06/18 04:48:34;;;;;;;11.15;10.15;;;29.70;99.90;;;;;;5032618;28;20208;-71
2023/06/18 04:51:00;;;;;;;12.15;11.00;;;30.10;99.90;;;;;;5024831;28;20208;-71
2023/06/18 04:53:26;;;;;;;11.00;10.00;;;30.00;99.90;;;;;;5031493;28;20185;-71
2023/06/18 04:55:52;;;;;;;10.98;9.95;;;30.60;99.90;;;;;;5028842;28;20204;-72
2023/06/18 04:58:19;;;;;;;11.10;10.15;;;30.40;99.90;;;;;;5026100;28;20211;-72
2023/06/18 05:00:45;;;;;;;10.80;9.80;;;30.60;99.90;;;;;;5029137;28;20234;-71
2023/06/18 05:03:11;;;;;;;11.93;10.70;;;30.80;99.90;;;;;;5029372;28;20288;-72
2023/06/18 05:05:37;;;;;;;11.27;10.20;;;30.90;99.90;;;;;;5030572;28;20686;-71
2023/06/18 05:08:02;;;;;;;10.13;9.23;;;31.10;99.90;;;;;;5029145;28;20172;-71
2023/06/18 05:10:28;;;;;;;9.10;8.20;;;31.40;99.90;;;;;;5028613;28;20211;-71
2023/06/18 05:12:54;;;;;;;9.85;8.93;;;31.40;99.90;;;;;;5028513;28;20286;-71
2023/06/18 05:15:20;;;;;;;9.50;8.70;;;31.40;99.90;;;;;;5028036;28;20222;-71
2023/06/18 05:17:45;;;;;;;9.93;9.02;;;31.60;99.90;;;;;;5032234;28;20543;-72
2023/06/18 05:20:11;;;;;;;9.65;8.75;;;31.60;99.90;;;;;;5029716;28;20617;-71
2023/06/18 05:22:39;;;;;;;9.73;8.93;;;31.80;99.90;;;;;;5029657;28;20598;-72
2023/06/18 05:25:05;;;;;;;10.25;9.25;;;32.00;99.90;;;;;;5030766;28;20721;-73
2023/06/18 05:27:31;;;;;;;10.57;9.60;;;32.10;99.90;;;;;;5030332;28;20294;-75
2023/06/18 05:29:56;;;;;;;10.52;9.45;;;31.70;99.90;;;;;;5023978;28;20318;-73
2023/06/18 05:32:22;;;;;;;9.98;9.13;;;32.00;99.90;;;;;;5024292;28;20261;-73
2023/06/18 05:34:48;;;;;;;9.18;8.43;;;31.80;99.90;;;;;;5024249;28;20203;-73
2023/06/18 05:37:14;;;;;;;10.35;9.45;;;31.30;99.90;;;;;;5027218;28;20584;-73
2023/06/18 05:39:40;;;;;;;10.27;9.38;;;30.30;99.90;;;;;;5024124;28;20706;-73
2023/06/18 05:42:06;;;;;;;8.82;8.07;;;31.10;99.90;;;;;;5025771;28;20222;-71
2023/06/18 05:44:32;;;;;;;9.60;8.70;;;31.30;99.90;;;;;;5025203;28;20180;-73
2023/06/18 05:46:57;;;;;;;8.88;8.07;;;32.30;99.70;;;;;;5027390;28;20559;-73
2023/06/18 05:49:25;;;;;;;7.07;6.45;;;32.60;98.20;;;;;;5045220;28;20211;-73
2023/06/18 05:51:51;;;;;;;6.38;5.70;;;32.60;95.80;;;;;;5031654;28;20585;-74
2023/06/18 05:54:17;;;;;;;7.72;6.05;;;32.80;95.70;;;;;;5026825;28;20211;-74
2023/06/18 05:56:43;;;;;;;6.00;5.43;;;32.50;94.20;;;;;;5025141;28;20205;-74
2023/06/18 05:59:09;;;;;;;6.13;5.63;;;33.10;93.90;;;;;;5029667;28;20217;-74
2023/06/18 06:01:36;;;;;;;6.45;5.95;;;33.10;92.70;;;;;;5029390;28;20204;-74
2023/06/18 06:04:01;;;;;;;5.97;5.47;;;32.90;92.80;;;;;;5030714;28;20208;-74
2023/06/18 06:06:27;;;;;;;6.40;5.90;;;33.30;92.10;;;;;;5031056;28;20204;-74
2023/06/18 06:08:53;;;;;;;6.43;5.93;;;32.90;92.50;;;;;;5019473;28;20682;-75
2023/06/18 06:11:19;;;;;;;6.13;5.53;;;33.60;91.40;;;;;;5021274;28;20308;-74
2023/06/18 06:13:45;;;;;;;6.45;5.93;;;33.60;90.20;;;;;;5026017;28;20569;-74
2023/06/18 06:16:10;;;;;;;5.97;5.47;;;33.50;89.80;;;;;;5027431;28;20212;-74
2023/06/18 06:18:36;;;;;;;6.30;5.70;;;33.80;89.40;;;;;;5023271;28;20235;-74
2023/06/18 06:21:02;;;;;;;6.53;6.00;;;32.80;90.10;;;;;;5026987;28;20650;-74
2023/06/18 06:23:28;;;;;;;7.55;6.85;;;32.40;89.10;;;;;;5023306;28;20555;-74
2023/06/18 06:25:53;;;;;;;6.57;5.97;;;32.00;90.70;;;;;;5030308;28;20212;-73
2023/06/18 06:28:19;;;;;;;6.47;5.95;;;32.70;91.60;;;;;;5023971;28;20254;-74
2023/06/18 06:30:45;;;;;;;6.93;6.32;;;33.20;91.00;;;;;;5026666;28;20281;-74
2023/06/18 06:33:11;;;;;;;7.05;6.45;;;33.90;90.70;;;;;;5027348;28;20563;-74
2023/06/18 06:35:37;;;;;;;7.30;6.60;;;33.90;90.00;;;;;;5028781;28;20225;-72
2023/06/18 06:38:03;;;;;;;7.50;6.88;;;34.00;90.00;;;;;;5029737;28;20661;-74
2023/06/18 06:40:28;;;;;;;7.80;7.10;;;34.50;88.90;;;;;;5029704;28;20215;-75
2023/06/18 06:42:54;;;;;;;8.30;7.70;;;34.90;88.40;;;;;;5029711;28;20354;-74
2023/06/18 06:45:19;;;;;;;7.28;6.57;;;34.90;86.80;;;;;;5028643;28;20207;-74
2023/06/18 06:47:46;;;;;;;7.75;6.90;;;34.90;85.30;;;;;;5020828;28;20263;-74
2023/06/18 06:50:12;;;;;;;7.18;6.57;;;35.80;84.80;;;;;;5026772;28;20175;-74
2023/06/18 06:52:38;;;;;;;7.25;6.53;;;35.70;83.60;;;;;;5020883;28;20204;-74
2023/06/18 06:55:04;;;;;;;6.70;6.13;;;35.50;83.10;;;;;;5026810;28;20203;-75
2023/06/18 06:57:29;;;;;;;6.28;5.78;;;35.80;82.00;;;;;;5027080;28;20208;-75
2023/06/18 06:59:55;;;;;;;7.13;6.57;;;35.90;82.10;;;;;;5023281;28;20579;-74
2023/06/18 07:02:21;;;;;;;8.02;6.90;;;36.00;81.30;;;;;;5025952;28;20200;-74
2023/06/18 07:04:47;;;;;;;7.63;6.85;;;35.20;81.00;;;;;;5025785;28;20202;-74
2023/06/18 07:07:14;;;;;;;7.93;7.20;;;35.20;81.90;;;;;;5025943;28;20200;-74
2023/06/18 07:09:40;;;;;;;8.15;7.47;;;35.30;81.40;;;;;;5026304;28;20243;-74
2023/06/18 07:12:06;;;;;;;7.40;6.70;;;35.60;80.60;;;;;;5027430;28;20216;-72
2023/06/18 07:14:31;;;;;;;7.65;6.95;;;35.80;80.90;;;;;;5027163;28;20631;-74
2023/06/18 07:16:58;;;;;;;8.18;7.47;;;36.00;81.10;;;;;;5028811;28;20204;-74
2023/06/18 07:19:23;;;;;;;7.47;6.88;;;36.50;79.20;;;;;;5028587;28;20212;-74
2023/06/18 07:21:50;;;;;;;7.60;7.00;;;36.70;79.20;;;;;;5029795;28;20230;-74
2023/06/18 07:24:16;;;;;;;7.32;6.65;;;36.60;78.60;;;;;;5024957;28;20281;-74
2023/06/18 07:26:42;;;;;;;7.10;6.50;;;36.60;78.10;;;;;;5019946;28;20643;-71
2023/06/18 07:29:08;;;;;;;8.13;7.53;;;35.90;79.60;;;;;;5027165;28;20179;-75
2023/06/18 07:31:35;;;;;;;7.75;7.03;;;35.10;78.50;;;;;;5019788;28;20248;-74
2023/06/18 07:34:00;;;;;;;6.93;6.32;;;34.60;79.30;;;;;;5021777;28;20228;-75
2023/06/18 07:36:26;;;;;;;7.22;6.53;;;35.00;80.10;;;;;;5028524;28;20775;-74
2023/06/18 07:38:52;;;;;;;6.65;6.05;;;35.40;78.40;;;;;;5025334;28;20705;-75
2023/06/18 07:41:17;;;;;;;7.10;6.40;;;35.40;79.20;;;;;;5027087;28;20200;-74
2023/06/18 07:43:43;;;;;;;6.82;6.22;;;34.70;78.20;;;;;;5026787;28;20200;-73
2023/06/18 07:46:09;;;;;;;5.53;5.13;;;34.00;78.50;;;;;;5027055;28;20200;-75
2023/06/18 07:48:35;;;;;;;6.90;6.30;;;35.10;80.50;;;;;;5032039;28;20206;-75
2023/06/18 07:51:00;;;;;;;6.35;5.75;;;36.20;78.40;;;;;;5030888;28;20572;-75
2023/06/18 07:53:26;;;;;;;6.43;5.90;;;35.80;76.80;;;;;;5029473;28;20211;-75
2023/06/18 07:55:52;;;;;;;5.88;5.38;;;36.20;77.30;;;;;;5031694;28;20208;-74
2023/06/18 07:58:17;;;;;;;5.22;4.78;;;36.40;75.70;;;;;;5032439;28;20242;-74
2023/06/18 08:00:43;;;;;;;5.90;5.40;;;35.30;74.20;;;;;;5033072;28;20208;-75
2023/06/18 08:03:08;;;;;;;6.10;5.50;;;35.90;75.10;;;;;;5029348;28;20302;-75
2023/06/18 08:05:34;;;;;;;5.97;5.45;;;36.80;74.70;;;;;;5023129;28;20191;-74
2023/06/18 08:08:00;;;;;;;6.07;5.47;;;37.70;73.30;;;;;;5025827;28;20624;-75
2023/06/18 08:10:25;;;;;;;6.43;5.75;;;36.40;72.70;;;;;;5026378;28;20223;-75
2023/06/18 08:12:51;;;;;;;6.50;6.00;;;35.50;75.20;;;;;;5031467;28;20203;-75
2023/06/18 08:15:17;;;;;;;7.05;6.35;;;35.60;75.30;;;;;;5029635;28;20788;-74
2023/06/18 08:17:42;;;;;;;6.90;6.30;;;36.70;75.00;;;;;;5026213;28;20191;-73
2023/06/18 08:20:08;;;;;;;6.53;5.90;;;37.30;74.90;;;;;;5029197;28;20700;-74
2023/06/18 08:22:34;;;;;;;6.13;5.57;;;38.30;73.00;;;;;;5027618;28;20739;-75
2023/06/18 08:24:59;;;;;;;6.88;6.25;;;37.80;70.40;;;;;;5030750;28;20208;-73
2023/06/18 08:27:25;;;;;;;5.75;5.25;;;36.80;70.80;;;;;;5030993;28;20236;-75
2023/06/18 08:29:50;;;;;;;7.78;6.00;;;36.40;73.30;;;;;;5031803;28;20555;-75
2023/06/18 08:32:16;;;;;;;7.00;6.43;;;35.50;74.70;;;;;;5031571;28;20215;-74
2023/06/18 08:34:46;;;;;;;7.70;6.95;;;34.60;76.80;;;;;;5031755;28;20214;-73
2023/06/18 08:37:12;;;;;;;6.07;5.47;;;34.90;76.70;;;;;;5032089;28;20636;-74
2023/06/18 08:39:38;;;;;;;9.18;8.27;;;33.80;76.90;;;;;;5032198;28;20295;-74
2023/06/18 08:42:05;;;;;;;6.38;5.82;;;33.00;80.10;;;;;;5025024;28;20306;-74
2023/06/18 08:44:33;;;;;;;7.15;5.85;;;32.40;82.00;;;;;;5025673;28;20175;-73
2023/06/18 08:47:03;;;;;;;11.40;9.20;;;32.20;83.80;;;;;;5026281;28;20358;-74
2023/06/18 08:49:29;;;;;;;12.27;9.05;;;32.10;85.80;;;;;;5029366;28;20679;-73
2023/06/18 08:51:56;;;;;;;9.85;8.10;;;31.80;86.00;;;;;;5026832;28;20212;-74
2023/06/18 08:54:27;;;;;;;8.35;7.47;;;31.90;86.80;;;;;;5025781;28;20224;-73
2023/06/18 08:56:58;;;;;;;8.25;7.45;;;32.60;86.30;;;;;;5028618;28;20180;-75
2023/06/18 08:59:26;;;;;;;19.67;13.25;;;33.60;84.40;;;;;;5027345;28;20227;-74
2023/06/18 09:01:53;;;;;;;5.63;5.13;;;34.40;82.10;;;;;;5029716;28;20199;-74
2023/06/18 09:04:21;;;;;;;5.82;5.30;;;34.30;80.20;;;;;;5030157;28;20208;-74
2023/06/18 09:06:47;;;;;;;5.82;5.25;;;33.60;81.70;;;;;;5029101;28;20739;-74
2023/06/18 09:09:13;;;;;;;5.22;4.82;;;32.30;82.90;;;;;;5030007;28;20211;-73
2023/06/18 09:11:38;;;;;;;5.35;4.85;;;33.00;85.10;;;;;;5029490;28;20226;-74
2023/06/18 09:14:04;;;;;;;5.53;4.95;;;34.20;81.80;;;;;;5031402;28;20183;-74
2023/06/18 09:16:30;;;;;;;4.55;3.88;;;34.50;79.80;;;;;;5031426;28;20204;-74
2023/06/18 09:18:56;;;;;;;4.60;4.20;;;35.00;77.30;;;;;;5031953;28;20753;-74
2023/06/18 09:21:40;;;;;;;5.55;4.28;;;34.90;77.10;;;;;;5028024;28;20219;-74
2023/06/18 09:24:14;;;;;;;5.50;4.20;;;35.10;76.30;;;;;;5028272;28;20203;-74
2023/06/18 09:26:40;;;;;;;6.10;4.18;;;34.90;75.90;;;;;;5028052;28;20180;-76
2023/06/18 09:29:07;;;;;;;4.93;4.50;;;34.40;75.60;;;;;;5026203;28;20180;-74
2023/06/18 09:31:35;;;;;;;5.45;4.93;;;34.30;74.50;;;;;;5030048;28;20223;-73
2023/06/18 09:34:18;;;;;;;6.05;4.22;;;35.10;74.30;;;;;;5032147;28;20204;-73
2023/06/18 09:36:46;;;;;;;5.90;5.40;;;35.70;73.30;;;;;;5025592;28;20206;-71
2023/06/18 09:39:25;;;;;;;13.20;9.27;;;34.90;73.20;;;;;;5028335;28;20219;-72
2023/06/18 09:41:52;;;;;;;6.10;5.50;;;34.40;74.70;;;;;;5027419;28;20223;-73
2023/06/18 09:44:19;;;;;;;6.15;5.47;;;34.10;77.20;;;;;;5028930;28;20176;-73
2023/06/18 09:46:47;;;;;;;5.57;5.07;;;34.00;76.30;;;;;;5029481;28;20703;-72
2023/06/18 09:49:15;;;;;;;5.72;5.22;;;33.30;77.00;;;;;;5030641;28;20208;-72
2023/06/18 09:51:41;;;;;;;5.55;5.05;;;33.10;79.10;;;;;;5030566;28;20217;-71
2023/06/18 09:54:08;;;;;;;5.63;5.13;;;32.50;81.00;;;;;;5029335;28;20211;-72
2023/06/18 09:56:34;;;;;;;7.15;5.32;;;31.60;82.30;;;;;;5030977;28;20689;-73
2023/06/18 09:59:01;;;;;;;5.75;4.88;;;30.90;84.70;;;;;;5023556;28;20212;-72
2023/06/18 10:01:29;;;;;;;5.80;5.15;;;30.30;87.70;;;;;;5019528;28;20275;-72
2023/06/18 10:03:55;;;;;;;5.47;4.90;;;29.80;88.50;;;;;;5025304;28;20287;-72
2023/06/18 10:06:22;;;;;;;5.75;5.25;;;29.70;90.00;;;;;;5027747;28;20295;-71
2023/06/18 10:08:50;;;;;;;6.20;5.05;;;29.60;90.10;;;;;;5022670;28;20519;-72
2023/06/18 10:11:18;;;;;;;5.75;5.25;;;29.60;90.90;;;;;;5028734;28;20673;-73
2023/06/18 10:13:52;;;;;;;8.63;4.97;;;30.10;90.90;;;;;;5023448;28;20209;-74
2023/06/18 10:16:19;;;;;;;5.15;4.75;;;30.10;90.80;;;;;;5031145;28;20208;-74
2023/06/18 10:18:51;;;;;;;6.25;4.90;;;29.90;91.40;;;;;;5028651;28;20274;-72
2023/06/18 10:21:18;;;;;;;6.35;4.80;;;29.50;91.90;;;;;;5029430;28;20212;-74
2023/06/18 10:23:48;;;;;;;5.20;4.72;;;29.40;93.50;;;;;;5027911;28;20185;-72
2023/06/18 10:26:14;;;;;;;6.00;4.20;;;29.40;94.40;;;;;;5028859;28;20532;-75
2023/06/18 10:28:40;;;;;;;5.65;5.15;;;29.70;94.10;;;;;;5028991;28;20214;-74
2023/06/18 10:31:06;;;;;;;5.82;5.10;;;29.70;94.30;;;;;;5029944;28;20219;-73
2023/06/18 10:33:34;;;;;;;7.05;4.95;;;30.20;93.70;;;;;;5029942;28;20262;-73
2023/06/18 10:36:00;;;;;;;4.88;4.47;;;30.30;92.70;;;;;;5030869;28;20220;-73
2023/06/18 10:38:27;;;;;;;5.18;4.68;;;30.50;92.50;;;;;;5026473;28;20180;-73
2023/06/18 10:41:10;;;;;;;5.30;4.82;;;30.40;91.90;;;;;;5019946;28;20212;-74
2023/06/18 10:43:50;;;;;;;5.32;4.82;;;29.50;91.60;;;;;;5022683;28;20706;-73
2023/06/18 10:46:16;;;;;;;4.63;4.18;;;29.20;92.70;;;;;;5027677;28;20306;-72
2023/06/18 10:49:11;;;;;;;8.10;5.93;;;29.80;94.00;;;;;;5024733;28;20233;-71
2023/06/18 10:51:37;;;;;;;17.33;12.90;;;30.30;93.40;;;;;;5024559;28;20212;-72
2023/06/18 10:54:23;;;;;;;5.18;4.53;;;30.30;92.70;;;;;;5028370;28;20210;-73
2023/06/18 10:56:51;;;;;;;6.00;4.80;;;30.00;92.20;;;;;;5029023;28;20173;-73
2023/06/18 10:59:50;;;;;;;5.20;4.75;;;30.10;92.80;;;;;;5027595;28;20262;-73
2023/06/18 11:02:31;;;;;;;5.82;5.13;;;29.90;92.70;;;;;;5027963;28;20208;-72
2023/06/18 11:04:57;;;;;;;5.63;4.45;;;29.40;91.70;;;;;;5025424;28;20678;-73
2023/06/18 11:07:23;;;;;;;6.13;4.30;;;29.70;93.70;;;;;;5028645;28;20204;-73
2023/06/18 11:09:58;;;;;;;6.43;4.43;;;30.00;93.30;;;;;;5028890;28;20204;-72
2023/06/18 11:12:28;;;;;;;4.40;3.92;;;30.00;91.60;;;;;;5026484;28;20246;-70
2023/06/18 11:15:16;;;;;;;4.45;4.05;;;30.10;91.40;;;;;;5026271;28;20181;-72
2023/06/18 11:17:49;;;;;;;4.95;4.45;;;30.00;90.70;;;;;;5022354;28;20176;-71
2023/06/18 11:20:15;;;;;;;4.93;4.43;;;29.70;91.00;;;;;;5024134;28;20200;-74
2023/06/18 11:22:42;;;;;;;4.15;3.85;;;29.90;91.60;;;;;;5024968;28;20218;-71
2023/06/18 11:25:10;;;;;;;5.50;4.30;;;29.50;91.20;;;;;;5028921;28;20208;-73
2023/06/18 11:27:43;;;;;;;7.30;4.78;;;29.60;90.60;;;;;;5032396;28;20208;-73
2023/06/18 11:30:13;;;;;;;4.55;3.88;;;29.50;90.40;;;;;;5032611;28;20208;-71
2023/06/18 11:32:40;;;;;;;4.82;4.43;;;29.70;90.90;;;;;;5029328;28;20195;-73
2023/06/18 11:35:08;;;;;;;6.07;4.63;;;30.00;91.20;;;;;;5030261;28;20553;-73
2023/06/18 11:37:34;;;;;;;6.57;5.53;;;29.80;90.80;;;;;;5028946;28;20208;-72
2023/06/18 11:40:01;;;;;;;5.05;4.57;;;30.10;91.50;;;;;;5031952;28;20693;-73
2023/06/18 11:42:27;;;;;;;5.03;4.63;;;30.30;89.60;;;;;;5030927;28;20220;-71
2023/06/18 11:45:04;;;;;;;5.30;4.80;;;29.30;90.20;;;;;;5031820;28;20235;-72
2023/06/18 11:47:30;;;;;;;4.50;4.10;;;29.30;91.20;;;;;;5029303;28;20176;-72
2023/06/18 11:49:57;;;;;;;8.32;6.75;;;30.00;92.00;;;;;;5032845;28;20238;-73
2023/06/18 11:52:25;;;;;;;8.40;4.78;;;30.30;92.00;;;;;;5025259;28;20208;-72
2023/06/18 11:54:53;;;;;;;5.32;4.82;;;30.70;91.40;;;;;;5029518;28;20215;-73
2023/06/18 11:57:22;;;;;;;6.53;5.28;;;30.90;90.80;;;;;;5024218;28;20299;-73
2023/06/18 11:59:51;;;;;;;4.35;4.05;;;30.80;89.90;;;;;;5026719;28;20745;-74
2023/06/18 12:02:18;;;;;;;5.57;4.55;;;30.70;89.10;;;;;;5027572;28;20226;-73
2023/06/18 12:04:45;;;;;;;5.85;4.65;;;30.60;89.60;;;;;;5027246;28;20208;-72
2023/06/18 12:07:22;;;;;;;4.68;4.28;;;30.60;87.40;;;;;;5028211;28;20200;-73
2023/06/18 12:09:49;;;;;;;4.88;4.40;;;30.70;88.00;;;;;;5030337;28;20309;-73
2023/06/18 12:12:50;;;;;;;4.68;4.28;;;30.20;87.20;;;;;;5032847;28;20230;-74
2023/06/18 12:15:17;;;;;;;6.47;4.95;;;29.70;88.10;;;;;;5029917;28;20719;-73
2023/06/18 12:17:51;;;;;;;6.75;4.38;;;29.80;90.20;;;;;;5028508;28;20180;-71
2023/06/18 12:20:21;;;;;;;5.28;4.50;;;29.70;90.80;;;;;;5031144;28;20207;-72
2023/06/18 12:22:48;;;;;;;4.63;4.20;;;29.50;90.20;;;;;;5029881;28;20212;-73
2023/06/18 12:25:15;;;;;;;4.93;4.47;;;29.10;90.00;;;;;;5032031;28;20195;-73
2023/06/18 12:27:42;;;;;;;4.95;4.43;;;28.90;90.00;;;;;;5032546;28;20212;-73
2023/06/18 12:30:09;;;;;;;6.38;5.80;;;28.90;90.70;;;;;;5033175;28;20702;-73
2023/06/18 12:32:36;;;;;;;7.72;4.80;;;28.90;88.50;;;;;;5027244;28;20279;-72
2023/06/18 12:35:11;;;;;;;5.22;4.72;;;29.00;90.00;;;;;;5022954;28;20690;-73
2023/06/18 12:37:41;;;;;;;4.88;4.35;;;29.00;90.00;;;;;;5024581;28;20686;-73
2023/06/18 12:40:28;;;;;;;4.75;4.35;;;29.10;90.40;;;;;;5028094;28;20213;-73